createdAt,value
2023-05-08T00:00:41.449Z,8.68
2023-05-08T00:03:09.068Z,8.66
2023-05-08T00:05:37.289Z,8.65
2023-05-08T00:08:05.574Z,8.63
2023-05-08T00:10:32.612Z,8.61
2023-05-08T00:13:00.114Z,8.60
2023-05-08T00:15:27.105Z,8.60
2023-05-08T00:17:55.190Z,8.60
2023-05-08T00:20:22.891Z,8.60
2023-05-08T00:22:49.905Z,8.61
2023-05-08T00:25:16.968Z,8.60
2023-05-08T00:27:43.896Z,8.60
2023-05-08T00:30:11.904Z,8.61
2023-05-08T00:32:39.312Z,8.60
2023-05-08T00:35:06.994Z,8.59
2023-05-08T00:37:33.942Z,8.58
2023-05-08T00:40:01.116Z,8.57
2023-05-08T00:42:28.136Z,8.58
2023-05-08T00:44:55.084Z,8.58
2023-05-08T00:47:23.092Z,8.58
2023-05-08T00:49:50.203Z,8.57
2023-05-08T00:52:17.463Z,8.56
2023-05-08T00:54:44.510Z,8.49
2023-05-08T00:57:11.763Z,8.54
2023-05-08T00:59:41.059Z,8.55
2023-05-08T01:02:08.327Z,8.53
2023-05-08T01:04:35.360Z,8.51
2023-05-08T01:07:03.138Z,8.50
2023-05-08T01:09:30.485Z,8.47
2023-05-08T01:12:04.099Z,8.46
2023-05-08T01:14:33.902Z,8.45
2023-05-08T01:17:11.710Z,8.43
2023-05-08T01:19:38.645Z,8.40
2023-05-08T01:22:18.391Z,8.38
2023-05-08T01:24:48.536Z,8.38
2023-05-08T01:27:30.000Z,8.35
2023-05-08T01:30:27.466Z,8.33
2023-05-08T01:33:02.573Z,8.28
2023-05-08T01:35:35.910Z,8.26
2023-05-08T01:38:22.710Z,8.26
2023-05-08T01:40:54.366Z,8.25
2023-05-08T01:43:49.062Z,8.21
2023-05-08T01:46:26.404Z,8.19
2023-05-08T01:49:00.611Z,8.15
2023-05-08T01:51:28.749Z,8.15
2023-05-08T01:53:57.020Z,8.14
2023-05-08T01:56:24.184Z,8.15
2023-05-08T01:58:52.348Z,8.15
2023-05-08T02:01:21.999Z,8.15
2023-05-08T02:03:49.686Z,8.14
2023-05-08T02:06:18.613Z,8.12
2023-05-08T02:08:46.474Z,8.10
2023-05-08T02:11:14.119Z,8.08
2023-05-08T02:13:41.115Z,8.06
2023-05-08T02:16:08.765Z,8.04
2023-05-08T02:18:36.333Z,8.04
2023-05-08T02:21:03.867Z,8.04
2023-05-08T02:23:31.022Z,8.05
2023-05-08T02:25:58.270Z,8.03
2023-05-08T02:28:25.729Z,8.04
2023-05-08T02:30:52.888Z,8.03
2023-05-08T02:33:20.344Z,7.98
2023-05-08T02:35:47.589Z,8.02
2023-05-08T02:38:14.638Z,8.03
2023-05-08T02:40:45.679Z,8.02
2023-05-08T02:43:13.035Z,8.02
2023-05-08T02:45:51.988Z,8.02
2023-05-08T02:48:24.859Z,8.01
2023-05-08T02:50:58.861Z,8.01
2023-05-08T02:53:46.920Z,7.99
2023-05-08T02:56:41.285Z,8.00
2023-05-08T02:59:20.220Z,8.00
2023-05-08T03:02:00.989Z,8.01
2023-05-08T03:04:31.748Z,8.03
2023-05-08T03:06:58.765Z,8.05
2023-05-08T03:09:30.022Z,8.07
2023-05-08T03:12:06.183Z,8.08
2023-05-08T03:14:36.912Z,8.08
2023-05-08T03:17:05.799Z,8.08
2023-05-08T03:19:36.968Z,8.09
2023-05-08T03:22:05.833Z,8.11
2023-05-08T03:24:36.472Z,8.12
2023-05-08T03:27:03.722Z,8.13
2023-05-08T03:29:32.990Z,8.12
2023-05-08T03:32:00.526Z,8.12
2023-05-08T03:34:28.451Z,8.10
2023-05-08T03:36:55.805Z,8.10
2023-05-08T03:39:24.079Z,8.10
2023-05-08T03:41:51.746Z,8.11
2023-05-08T03:44:18.688Z,8.13
2023-05-08T03:46:45.851Z,8.14
2023-05-08T03:49:12.989Z,8.15
2023-05-08T03:51:40.141Z,8.16
2023-05-08T03:54:07.910Z,8.16
2023-05-08T03:56:35.066Z,8.16
2023-05-08T03:59:06.924Z,8.16
2023-05-08T04:01:41.679Z,8.17
2023-05-08T04:04:11.827Z,8.16
2023-05-08T04:06:54.387Z,8.15
2023-05-08T04:09:38.945Z,8.16
2023-05-08T04:12:21.563Z,8.17
2023-05-08T04:14:54.134Z,8.17
2023-05-08T04:17:36.372Z,8.16
2023-05-08T04:20:04.211Z,8.17
2023-05-08T04:22:32.698Z,8.19
2023-05-08T04:25:02.711Z,8.22
2023-05-08T04:27:30.175Z,8.25
2023-05-08T04:29:57.424Z,8.28
2023-05-08T04:32:24.711Z,8.31
2023-05-08T04:34:52.442Z,8.35
2023-05-08T04:37:26.661Z,8.38
2023-05-08T04:39:54.322Z,8.42
2023-05-08T04:42:21.777Z,8.44
2023-05-08T04:44:49.146Z,8.49
2023-05-08T04:47:16.217Z,8.53
2023-05-08T04:49:43.435Z,8.58
2023-05-08T04:52:10.473Z,8.65
2023-05-08T04:54:37.648Z,8.71
2023-05-08T04:57:06.935Z,8.75
2023-05-08T04:59:34.295Z,8.79
2023-05-08T05:02:02.345Z,8.85
2023-05-08T05:04:29.935Z,8.92
2023-05-08T05:06:57.188Z,9.00
2023-05-08T05:09:25.479Z,9.06
2023-05-08T05:11:52.500Z,9.12
2023-05-08T05:14:19.650Z,9.17
2023-05-08T05:16:46.904Z,9.22
2023-05-08T05:19:13.951Z,9.29
2023-05-08T05:21:41.412Z,9.34
2023-05-08T05:24:08.558Z,9.38
2023-05-08T05:26:37.654Z,9.44
2023-05-08T05:29:04.817Z,9.51
2023-05-08T05:31:32.296Z,9.55
2023-05-08T05:33:59.425Z,9.56
2023-05-08T05:36:26.766Z,9.61
2023-05-08T05:38:54.328Z,9.65
2023-05-08T05:41:22.093Z,9.70
2023-05-08T05:43:49.145Z,9.75
2023-05-08T05:46:16.341Z,9.76
2023-05-08T05:48:43.382Z,9.77
2023-05-08T05:51:11.512Z,9.78
2023-05-08T05:53:38.765Z,9.82
2023-05-08T05:56:06.602Z,9.85
2023-05-08T05:58:33.887Z,9.89
2023-05-08T06:01:01.655Z,9.94
2023-05-08T06:03:30.240Z,10.00
2023-05-08T06:05:58.105Z,10.07
2023-05-08T06:08:26.829Z,10.11
2023-05-08T06:10:56.399Z,10.15
2023-05-08T06:13:24.142Z,10.15
2023-05-08T06:15:55.924Z,10.17
2023-05-08T06:18:23.176Z,10.21
2023-05-08T06:20:56.272Z,10.25
2023-05-08T06:23:23.492Z,10.28
2023-05-08T06:25:50.776Z,10.31
2023-05-08T06:28:18.431Z,10.35
2023-05-08T06:30:45.524Z,10.40
2023-05-08T06:33:13.044Z,10.42
2023-05-08T06:35:40.501Z,10.46
2023-05-08T06:38:07.756Z,10.51
2023-05-08T06:40:35.113Z,10.58
2023-05-08T06:43:02.582Z,10.64
2023-05-08T06:45:30.147Z,10.68
2023-05-08T06:47:57.276Z,10.75
2023-05-08T06:50:24.437Z,10.82
2023-05-08T06:52:51.685Z,10.94
2023-05-08T06:55:18.938Z,11.07
2023-05-08T06:57:46.089Z,11.17
2023-05-08T07:00:13.686Z,11.24
2023-05-08T07:02:40.935Z,11.30
2023-05-08T07:05:08.893Z,11.28
2023-05-08T07:07:36.534Z,11.26
2023-05-08T07:10:04.955Z,11.26
2023-05-08T07:12:33.503Z,11.32
2023-05-08T07:15:14.115Z,11.38
2023-05-08T07:17:47.724Z,11.47
2023-05-08T07:20:15.026Z,11.55
2023-05-08T07:22:42.173Z,11.65
2023-05-08T07:25:09.980Z,11.72
2023-05-08T07:27:38.010Z,11.83
2023-05-08T07:30:06.072Z,11.91
2023-05-08T07:32:33.806Z,11.99
2023-05-08T07:35:02.288Z,11.98
2023-05-08T07:37:29.614Z,12.00
2023-05-08T07:39:57.245Z,12.09
2023-05-08T07:42:24.394Z,12.19
2023-05-08T07:44:54.755Z,12.31
2023-05-08T07:47:22.371Z,12.38
2023-05-08T07:49:49.436Z,12.47
2023-05-08T07:52:16.480Z,12.57
2023-05-08T07:54:43.627Z,12.61
2023-05-08T07:57:11.192Z,12.65
2023-05-08T07:59:38.236Z,12.71
2023-05-08T08:02:07.052Z,12.76
2023-05-08T08:04:34.470Z,12.85
2023-05-08T08:07:01.529Z,13.00
2023-05-08T08:09:28.785Z,13.18
2023-05-08T08:11:55.831Z,13.34
2023-05-08T08:14:23.082Z,13.44
2023-05-08T08:16:50.177Z,13.46
2023-05-08T08:19:17.292Z,13.42
2023-05-08T08:21:44.644Z,13.27
2023-05-08T08:24:11.896Z,13.30
2023-05-08T08:26:38.976Z,13.37
2023-05-08T08:29:06.506Z,13.48
2023-05-08T08:31:33.660Z,13.58
2023-05-08T08:34:00.984Z,13.67
2023-05-08T08:36:28.165Z,13.76
2023-05-08T08:38:55.214Z,13.81
2023-05-08T08:41:22.775Z,13.83
2023-05-08T08:43:49.927Z,13.89
2023-05-08T08:46:17.721Z,14.00
2023-05-08T08:48:46.511Z,14.09
2023-05-08T08:51:28.320Z,14.11
2023-05-08T08:54:17.146Z,14.12
2023-05-08T08:56:44.606Z,14.14
2023-05-08T08:59:13.133Z,14.15
2023-05-08T09:01:40.609Z,14.09
2023-05-08T09:04:08.593Z,13.95
2023-05-08T09:08:21.859Z,13.75
2023-05-08T09:10:49.139Z,13.65
2023-05-08T09:13:17.484Z,13.55
2023-05-08T09:15:47.512Z,13.50
2023-05-08T09:18:14.588Z,13.49
2023-05-08T09:20:41.712Z,13.46
2023-05-08T09:23:09.434Z,13.46
2023-05-08T09:25:49.132Z,13.47
2023-05-08T09:28:17.807Z,13.53
2023-05-08T09:30:59.637Z,13.61
2023-05-08T09:33:28.044Z,13.73
2023-05-08T09:35:55.926Z,13.82
2023-05-08T09:38:40.327Z,13.87
2023-05-08T09:41:08.930Z,13.84
2023-05-08T09:43:36.390Z,13.83
2023-05-08T09:46:23.925Z,13.80
2023-05-08T09:48:52.097Z,13.79
2023-05-08T09:51:19.326Z,13.80
2023-05-08T09:53:46.706Z,13.80
2023-05-08T09:56:13.940Z,13.81
2023-05-08T09:58:42.102Z,13.80
2023-05-08T10:01:27.673Z,13.76
2023-05-08T10:03:54.871Z,13.73
2023-05-08T10:06:22.216Z,13.66
2023-05-08T10:08:49.983Z,13.60
2023-05-08T10:11:18.137Z,13.52
2023-05-08T10:13:45.951Z,13.42
2023-05-08T10:16:17.313Z,13.34
2023-05-08T10:18:49.493Z,13.31
2023-05-08T10:21:17.767Z,13.28
2023-05-08T10:23:44.978Z,13.28
2023-05-08T10:26:19.934Z,13.30
2023-05-08T10:28:47.067Z,13.34
2023-05-08T10:31:14.852Z,13.35
2023-05-08T10:33:42.192Z,13.37
2023-05-08T10:36:10.265Z,13.39
2023-05-08T10:38:40.491Z,13.42
2023-05-08T10:41:07.652Z,13.46
2023-05-08T10:43:34.741Z,13.52
2023-05-08T10:46:05.693Z,13.58
2023-05-08T10:48:35.959Z,13.60
2023-05-08T10:51:09.772Z,13.60
2023-05-08T10:53:46.446Z,13.59
2023-05-08T10:56:13.608Z,13.53
2023-05-08T10:58:40.960Z,13.50
2023-05-08T11:01:08.363Z,13.48
2023-05-08T11:03:41.574Z,13.47
2023-05-08T11:06:08.868Z,13.48
2023-05-08T11:08:47.904Z,13.48
2023-05-08T11:11:25.367Z,13.59
2023-05-08T11:13:58.194Z,13.61
2023-05-08T11:16:53.700Z,13.54
2023-05-08T11:19:22.199Z,13.47
2023-05-08T11:22:14.534Z,13.45
2023-05-08T11:25:01.330Z,13.44
2023-05-08T11:27:42.910Z,13.43
2023-05-08T11:30:26.051Z,13.46
2023-05-08T11:33:05.840Z,13.49
2023-05-08T11:35:49.022Z,13.52
2023-05-08T11:38:19.353Z,13.52
2023-05-08T11:40:47.337Z,13.61
2023-05-08T11:43:26.471Z,13.75
2023-05-08T11:45:54.738Z,13.86
2023-05-08T11:48:21.912Z,13.88
2023-05-08T11:50:49.662Z,13.87
2023-05-08T11:53:16.811Z,13.86
2023-05-08T11:55:47.861Z,13.84
2023-05-08T11:58:15.981Z,13.82
2023-05-08T12:00:47.138Z,13.84
2023-05-08T12:03:15.522Z,13.90
2023-05-08T12:05:43.021Z,13.95
2023-05-08T12:08:10.778Z,13.98
2023-05-08T12:10:41.213Z,13.97
2023-05-08T12:13:18.458Z,13.91
2023-05-08T12:15:46.991Z,13.84
2023-05-08T12:18:14.479Z,13.82
2023-05-08T12:20:41.702Z,13.82
2023-05-08T12:23:10.401Z,13.80
2023-05-08T12:25:40.922Z,13.80
2023-05-08T12:28:08.278Z,13.80
2023-05-08T12:30:35.547Z,13.82
2023-05-08T12:33:04.773Z,13.78
2023-05-08T12:35:32.399Z,13.72
2023-05-08T12:38:03.682Z,13.66
2023-05-08T12:40:33.977Z,13.63
2023-05-08T12:43:02.667Z,13.62
2023-05-08T12:45:31.677Z,13.62
2023-05-08T12:48:03.776Z,13.64
2023-05-08T12:50:34.877Z,13.63
2023-05-08T12:53:06.608Z,13.61
2023-05-08T12:55:34.915Z,13.55
2023-05-08T12:58:16.030Z,13.53
2023-05-08T13:00:45.097Z,13.60
2023-05-08T13:03:14.133Z,13.64
2023-05-08T13:05:45.851Z,13.66
2023-05-08T13:08:13.003Z,13.64
2023-05-08T13:10:53.568Z,13.63
2023-05-08T13:13:24.179Z,13.62
2023-05-08T13:15:51.919Z,13.53
2023-05-08T13:18:19.732Z,13.48
2023-05-08T13:20:47.910Z,13.52
2023-05-08T13:23:15.169Z,13.61
2023-05-08T13:25:42.322Z,13.69
2023-05-08T13:28:09.889Z,13.78
2023-05-08T13:30:37.235Z,13.82
2023-05-08T13:33:04.909Z,13.83
2023-05-08T13:35:33.134Z,13.82
2023-05-08T13:38:00.640Z,13.83
2023-05-08T13:40:28.127Z,13.88
2023-05-08T13:42:55.382Z,13.96
2023-05-08T13:45:22.822Z,14.08
2023-05-08T13:47:51.368Z,14.17
2023-05-08T13:50:20.091Z,14.23
2023-05-08T13:52:47.349Z,14.31
2023-05-08T13:55:14.845Z,14.36
2023-05-08T13:57:42.161Z,14.38
2023-05-08T14:00:10.055Z,14.44
2023-05-08T14:02:37.943Z,14.52
2023-05-08T14:05:08.226Z,14.56
2023-05-08T14:07:36.207Z,14.60
2023-05-08T14:10:03.655Z,14.67
2023-05-08T14:12:31.120Z,14.67
2023-05-08T14:14:58.591Z,14.63
2023-05-08T14:17:25.861Z,14.62
2023-05-08T14:19:53.086Z,14.60
2023-05-08T14:22:20.449Z,14.59
2023-05-08T14:24:47.599Z,14.62
2023-05-08T14:27:14.861Z,14.66
2023-05-08T14:29:42.103Z,14.69
2023-05-08T14:32:11.206Z,14.72
2023-05-08T14:34:38.359Z,14.74
2023-05-08T14:37:05.510Z,14.76
2023-05-08T14:39:32.662Z,14.78
2023-05-08T14:42:21.346Z,14.73
2023-05-08T14:44:49.212Z,14.59
2023-05-08T14:47:16.550Z,14.44
2023-05-08T14:49:43.800Z,14.36
2023-05-08T14:52:10.955Z,14.29
2023-05-08T14:54:38.283Z,14.25
2023-05-08T14:57:05.787Z,14.17
2023-05-08T14:59:32.931Z,14.07
2023-05-08T15:02:01.357Z,13.99
2023-05-08T15:04:28.567Z,13.90
2023-05-08T15:06:56.014Z,13.86
2023-05-08T15:09:23.275Z,13.79
2023-05-08T15:11:50.368Z,13.78
2023-05-08T15:14:17.442Z,13.71
2023-05-08T15:16:44.589Z,13.66
2023-05-08T15:19:11.889Z,13.60
2023-05-08T15:21:39.065Z,13.54
2023-05-08T15:24:06.750Z,13.51
2023-05-08T15:26:33.951Z,13.50
2023-05-08T15:29:01.220Z,13.47
2023-05-08T15:31:28.534Z,13.44
2023-05-08T15:33:55.842Z,13.41
2023-05-08T15:36:22.975Z,13.39
2023-05-08T15:38:50.333Z,13.38
2023-05-08T15:41:17.587Z,13.37
2023-05-08T15:43:45.591Z,13.32
2023-05-08T15:46:12.942Z,13.24
2023-05-08T15:48:40.171Z,13.17
2023-05-08T15:51:07.529Z,13.14
2023-05-08T15:53:35.603Z,13.12
2023-05-08T15:56:05.826Z,13.09
2023-05-08T15:58:32.979Z,13.06
2023-05-08T16:01:00.209Z,13.03
2023-05-08T16:03:27.668Z,13.00
2023-05-08T16:05:54.949Z,12.96
2023-05-08T16:08:23.125Z,12.87
2023-05-08T16:10:50.292Z,12.87
2023-05-08T16:13:17.473Z,12.84
2023-05-08T16:15:44.830Z,12.81
2023-05-08T16:18:12.103Z,12.77
2023-05-08T16:20:40.706Z,12.73
2023-05-08T16:23:08.218Z,12.70
2023-05-08T16:25:35.552Z,12.70
2023-05-08T16:28:02.805Z,12.69
2023-05-08T16:30:30.070Z,12.69
2023-05-08T16:32:57.259Z,12.69
2023-05-08T16:35:24.475Z,12.67
2023-05-08T16:37:51.823Z,12.66
2023-05-08T16:40:19.108Z,12.66
2023-05-08T16:42:46.541Z,12.64
2023-05-08T16:45:14.026Z,12.62
2023-05-08T16:47:41.461Z,12.60
2023-05-08T16:50:09.316Z,12.59
2023-05-08T16:52:36.478Z,12.56
2023-05-08T16:55:03.880Z,12.55
2023-05-08T16:57:31.194Z,12.54
2023-05-08T16:59:58.344Z,12.52
2023-05-08T17:02:25.841Z,12.49
2023-05-08T17:04:53.056Z,12.48
2023-05-08T17:07:20.234Z,12.45
2023-05-08T17:09:53.013Z,12.41
2023-05-08T17:12:20.165Z,12.37
2023-05-08T17:14:47.812Z,12.32
2023-05-08T17:17:14.963Z,12.26
2023-05-08T17:19:44.898Z,12.21
2023-05-08T17:22:13.264Z,12.18
2023-05-08T17:24:40.615Z,12.10
2023-05-08T17:27:08.170Z,12.04
2023-05-08T17:29:35.749Z,12.03
2023-05-08T17:32:02.996Z,11.99
2023-05-08T17:34:30.382Z,11.95
2023-05-08T17:36:57.616Z,11.91
2023-05-08T17:39:24.773Z,11.81
2023-05-08T17:41:52.324Z,11.85
2023-05-08T17:44:19.421Z,11.83
2023-05-08T17:46:47.654Z,11.80
2023-05-08T17:49:16.385Z,11.75
2023-05-08T17:51:45.133Z,11.71
2023-05-08T17:54:12.288Z,11.68
2023-05-08T17:56:39.500Z,11.65
2023-05-08T17:59:06.692Z,11.63
2023-05-08T18:01:33.881Z,11.58
2023-05-08T18:04:01.101Z,11.55
2023-05-08T18:06:28.265Z,11.53
2023-05-08T18:08:55.717Z,11.50
2023-05-08T18:11:24.626Z,11.46
2023-05-08T18:13:54.833Z,11.41
2023-05-08T18:16:23.176Z,11.37
2023-05-08T18:18:50.500Z,11.32
2023-05-08T18:21:18.339Z,11.27
2023-05-08T18:23:46.925Z,11.22
2023-05-08T18:26:15.220Z,11.17
2023-05-08T18:28:42.554Z,11.10
2023-05-08T18:31:09.986Z,11.03
2023-05-08T18:33:37.482Z,10.97
2023-05-08T18:36:07.353Z,10.89
2023-05-08T18:38:34.880Z,10.84
2023-05-08T18:41:03.431Z,10.73
2023-05-08T18:43:30.903Z,10.62
2023-05-08T18:45:59.412Z,10.59
2023-05-08T18:48:26.964Z,10.56
2023-05-08T18:50:56.143Z,10.50
2023-05-08T18:53:23.293Z,10.43
2023-05-08T18:55:51.187Z,10.38
2023-05-08T18:58:18.419Z,10.33
2023-05-08T19:00:45.719Z,10.27
2023-05-08T19:03:13.020Z,10.23
2023-05-08T19:05:43.665Z,10.20
2023-05-08T19:08:10.921Z,10.18
2023-05-08T19:10:38.175Z,10.15
2023-05-08T19:13:05.739Z,10.11
2023-05-08T19:15:33.088Z,10.08
2023-05-08T19:18:01.624Z,10.02
2023-05-08T19:20:29.039Z,9.99
2023-05-08T19:22:56.287Z,9.95
2023-05-08T19:25:23.609Z,9.92
2023-05-08T19:27:50.899Z,9.88
2023-05-08T19:30:18.051Z,9.85
2023-05-08T19:32:45.199Z,9.82
2023-05-08T19:35:12.358Z,9.79
2023-05-08T19:37:39.480Z,9.76
2023-05-08T19:40:07.663Z,9.74
2023-05-08T19:42:34.939Z,9.71
2023-05-08T19:45:02.189Z,9.69
2023-05-08T19:47:29.482Z,9.69
2023-05-08T19:49:56.714Z,9.67
2023-05-08T19:52:23.854Z,9.64
2023-05-08T19:54:51.415Z,9.62
2023-05-08T19:57:18.563Z,9.60
2023-05-08T19:59:45.713Z,9.59
2023-05-08T20:02:12.874Z,9.57
2023-05-08T20:04:57.317Z,9.54
2023-05-08T20:07:27.135Z,9.51
2023-05-08T20:09:54.290Z,9.46
2023-05-08T20:12:21.542Z,9.40
2023-05-08T20:14:49.521Z,9.38
2023-05-08T20:17:16.664Z,9.35
2023-05-08T20:19:43.849Z,9.33
2023-05-08T20:22:11.376Z,9.32
2023-05-08T20:24:38.580Z,9.31
2023-05-08T20:27:05.891Z,9.30
2023-05-08T20:29:33.136Z,9.29
2023-05-08T20:32:00.347Z,9.28
2023-05-08T20:34:27.529Z,9.26
2023-05-08T20:36:56.536Z,9.24
2023-05-08T20:39:23.788Z,9.22
2023-05-08T20:41:50.948Z,9.20
2023-05-08T20:44:19.519Z,9.19
2023-05-08T20:46:46.677Z,9.18
2023-05-08T20:49:14.236Z,9.15
2023-05-08T20:51:41.492Z,9.13
2023-05-08T20:54:08.639Z,9.12
2023-05-08T20:56:38.694Z,9.10
2023-05-08T20:59:05.913Z,9.10
2023-05-08T21:01:33.014Z,9.05
2023-05-08T21:04:00.216Z,9.01
2023-05-08T21:06:27.382Z,9.05
2023-05-08T21:08:54.532Z,9.06
2023-05-08T21:11:22.285Z,9.06
2023-05-08T21:13:49.437Z,9.05
2023-05-08T21:16:17.070Z,9.06
2023-05-08T21:18:44.356Z,9.06
2023-05-08T21:21:18.268Z,9.05
2023-05-08T21:25:40.106Z,9.05
2023-05-08T21:28:07.263Z,9.02
2023-05-08T21:30:34.417Z,9.00
2023-05-08T21:33:01.810Z,8.99
2023-05-08T21:35:29.024Z,8.98
2023-05-08T21:37:56.383Z,8.97
2023-05-08T21:40:23.494Z,8.95
2023-05-08T21:42:50.789Z,8.93
2023-05-08T21:45:17.938Z,8.89
2023-05-08T21:47:45.183Z,8.85
2023-05-08T21:50:12.454Z,8.81
2023-05-08T21:52:39.562Z,8.77
2023-05-08T21:55:08.967Z,8.74
2023-05-08T21:57:36.172Z,8.61
2023-05-08T22:00:05.371Z,8.65
2023-05-08T22:02:32.610Z,8.61
2023-05-08T22:04:59.862Z,8.57
2023-05-08T22:07:27.014Z,8.54
2023-05-08T22:09:54.171Z,8.51
2023-05-08T22:12:21.420Z,8.47
2023-05-08T22:14:48.673Z,8.44
2023-05-08T22:17:15.824Z,8.41
2023-05-08T22:19:42.994Z,8.38
2023-05-08T22:22:10.331Z,8.34
2023-05-08T22:24:37.494Z,8.30
2023-05-08T22:27:04.737Z,8.26
2023-05-08T22:29:32.196Z,8.21
2023-05-08T22:31:59.402Z,8.16
2023-05-08T22:34:26.712Z,8.13
2023-05-08T22:36:53.863Z,8.10
2023-05-08T22:39:21.533Z,8.06
2023-05-08T22:41:48.783Z,8.02
2023-05-08T22:44:15.926Z,8.00
2023-05-08T22:46:43.145Z,7.98
2023-05-08T22:49:10.533Z,7.96
2023-05-08T22:51:37.683Z,7.93
2023-05-08T22:54:05.366Z,7.89
2023-05-08T22:56:32.602Z,7.85
2023-05-08T22:58:59.757Z,7.83
2023-05-08T23:01:27.083Z,7.80
2023-05-08T23:03:54.691Z,7.75
2023-05-08T23:06:21.820Z,7.71
2023-05-08T23:08:50.499Z,7.68
2023-05-08T23:11:17.661Z,7.66
2023-05-08T23:13:44.916Z,7.64
2023-05-08T23:16:12.277Z,7.63
2023-05-08T23:18:39.531Z,7.62
2023-05-08T23:21:07.500Z,7.58
2023-05-08T23:23:35.216Z,7.56
2023-05-08T23:26:05.255Z,7.53
2023-05-08T23:28:36.127Z,7.50
2023-05-08T23:31:03.594Z,7.46
2023-05-08T23:33:31.031Z,7.42
2023-05-08T23:35:58.597Z,7.38
2023-05-08T23:38:25.976Z,7.36
2023-05-08T23:40:53.100Z,7.35
2023-05-08T23:43:20.249Z,7.33
2023-05-08T23:45:47.539Z,7.32
2023-05-08T23:48:14.761Z,7.29
2023-05-08T23:50:42.218Z,7.25
2023-05-08T23:53:09.368Z,7.25
2023-05-08T23:55:39.486Z,7.24
2023-05-08T23:58:06.632Z,7.23
